Time;durP1;ratioP1;P1;durP2;ratioP2;P2;SDS_P1;SDS_P2;PMS_P1;PMS_P2;Temp;Humidity;BMP_temperature;BMP_pressure;BME280_temperature;BME280_humidity;BME280_pressure;Samples;Min_cycle;Max_cycle;Signal;HPM_P1;HPM_P2
2022/03/14 00:01:30;;;;;;;15.90;11.65;;;8.70;99.90;;;;;;4991579;28;20034;-49
2022/03/14 00:03:58;;;;;;;17.02;11.50;;;8.60;99.90;;;;;;4992051;28;20045;-53
2022/03/14 00:06:26;;;;;;;15.68;11.63;;;8.70;99.90;;;;;;4991800;28;20045;-54
2022/03/14 00:08:57;;;;;;;21.33;12.50;;;8.80;99.90;;;;;;4995724;28;20080;-49
2022/03/14 00:11:26;;;;;;;20.25;12.77;;;8.70;99.90;;;;;;4995742;28;20113;-51
2022/03/14 00:13:52;;;;;;;18.75;12.40;;;8.50;99.90;;;;;;4978619;28;20046;-47
2022/03/14 00:16:25;;;;;;;21.17;13.15;;;8.60;99.90;;;;;;4995212;28;20040;-51
2022/03/14 00:18:53;;;;;;;16.40;12.07;;;8.40;99.90;;;;;;4996375;28;20480;-48
2022/03/14 00:21:23;;;;;;;18.85;12.38;;;8.50;99.90;;;;;;4996034;28;20537;-47
2022/03/14 00:23:58;;;;;;;19.65;12.93;;;8.60;99.90;;;;;;4996559;28;20434;-50
2022/03/14 00:26:26;;;;;;;18.95;13.00;;;9.00;99.90;;;;;;4995547;28;20118;-49
2022/03/14 00:28:52;;;;;;;17.42;12.70;;;6.40;99.90;;;;;;4996228;28;20065;-50
2022/03/14 00:31:19;;;;;;;20.38;13.75;;;8.30;99.90;;;;;;4996865;28;20092;-46
2022/03/14 00:33:45;;;;;;;17.02;11.93;;;8.20;99.90;;;;;;4995904;28;20042;-51
2022/03/14 00:36:11;;;;;;;15.70;11.95;;;8.20;99.90;;;;;;4996992;28;20548;-48
2022/03/14 00:38:39;;;;;;;17.52;12.40;;;8.10;99.90;;;;;;4995651;28;20044;-50
2022/03/14 00:41:06;;;;;;;18.67;13.27;;;9.20;99.90;;;;;;4996252;28;20068;-51
2022/03/14 00:43:32;;;;;;;16.80;12.80;;;7.80;99.90;;;;;;4995759;28;20040;-47
2022/03/14 00:46:00;;;;;;;17.77;12.77;;;8.90;99.90;;;;;;4997244;28;20108;-50
2022/03/14 00:48:26;;;;;;;17.92;12.32;;;7.90;99.90;;;;;;4996398;28;20042;-50
2022/03/14 00:50:53;;;;;;;21.10;13.15;;;8.00;99.90;;;;;;4996258;28;20038;-47
2022/03/14 00:53:20;;;;;;;19.55;13.48;;;8.00;99.90;;;;;;4995613;28;20080;-48
2022/03/14 00:55:46;;;;;;;18.55;12.55;;;7.90;99.90;;;;;;4994523;28;20049;-49
2022/03/14 00:58:12;;;;;;;18.63;12.48;;;8.70;99.90;;;;;;4996873;28;20387;-48
2022/03/14 01:00:38;;;;;;;19.35;12.25;;;8.00;99.90;;;;;;4996567;28;20498;-51
2022/03/14 01:03:06;;;;;;;17.77;13.10;;;8.10;99.90;;;;;;4995479;28;20038;-52
2022/03/14 01:05:32;;;;;;;21.15;13.43;;;8.10;99.90;;;;;;4994308;28;20384;-51
2022/03/14 01:07:57;;;;;;;16.95;12.77;;;8.10;99.90;;;;;;4994365;28;20046;-51
2022/03/14 01:10:25;;;;;;;18.05;13.63;;;8.10;99.90;;;;;;4995695;28;20065;-51
2022/03/14 01:12:51;;;;;;;18.40;12.70;;;8.80;99.90;;;;;;4995334;28;20085;-49
2022/03/14 01:15:18;;;;;;;18.60;13.55;;;7.60;99.90;;;;;;4994525;28;20077;-47
2022/03/14 01:17:44;;;;;;;18.45;13.50;;;8.50;99.90;;;;;;4993732;28;20049;-51
2022/03/14 01:20:10;;;;;;;19.98;13.07;;;8.10;99.90;;;;;;4994055;28;20040;-52
2022/03/14 01:22:38;;;;;;;19.85;13.70;;;7.90;99.90;;;;;;4994056;28;20042;-52
2022/03/14 01:25:04;;;;;;;19.15;13.38;;;8.20;99.90;;;;;;4994544;28;20041;-49
2022/03/14 01:27:30;;;;;;;17.48;13.15;;;8.10;99.90;;;;;;4994474;28;20438;-52
2022/03/14 01:29:56;;;;;;;18.58;13.48;;;8.00;99.90;;;;;;4994121;28;20042;-53
2022/03/14 01:32:22;;;;;;;18.08;13.32;;;7.90;99.90;;;;;;4995129;28;20042;-48
2022/03/14 01:34:50;;;;;;;17.92;13.70;;;7.90;99.90;;;;;;4976353;28;20161;-53
2022/03/14 01:37:18;;;;;;;20.30;13.77;;;9.20;99.90;;;;;;4994353;28;20045;-52
2022/03/14 01:39:44;;;;;;;16.33;13.18;;;7.90;99.90;;;;;;4991808;28;20041;-52
2022/03/14 01:42:19;;;;;;;19.60;13.50;;;8.10;99.90;;;;;;4995105;28;20072;-52
2022/03/14 01:44:47;;;;;;;22.42;14.63;;;8.60;99.90;;;;;;4994005;28;20120;-49
2022/03/14 01:47:14;;;;;;;18.83;13.63;;;8.10;99.90;;;;;;4994121;28;20046;-52
2022/03/14 01:49:42;;;;;;;18.13;12.88;;;7.90;99.90;;;;;;4994217;28;20050;-52
2022/03/14 01:52:08;;;;;;;17.50;12.77;;;7.90;99.90;;;;;;4995737;28;20045;-52
2022/03/14 01:54:34;;;;;;;16.17;12.68;;;7.90;99.90;;;;;;4994198;28;20048;-53
2022/03/14 01:57:00;;;;;;;19.48;12.88;;;8.70;99.90;;;;;;4994396;28;20213;-50
2022/03/14 01:59:29;;;;;;;15.70;12.07;;;8.00;99.90;;;;;;4995805;28;20042;-50
2022/03/14 02:01:58;;;;;;;19.80;12.63;;;7.90;99.90;;;;;;4994616;28;20050;-51
2022/03/14 02:04:24;;;;;;;18.75;12.70;;;8.00;99.90;;;;;;4995283;28;20129;-53
2022/03/14 02:06:53;;;;;;;16.85;11.93;;;9.20;99.90;;;;;;4995251;28;20121;-52
2022/03/14 02:09:20;;;;;;;16.88;12.10;;;9.10;99.90;;;;;;4994480;28;20049;-51
2022/03/14 02:12:15;;;;;;;19.42;13.68;;;8.00;99.90;;;;;;4994867;28;20663;-51
2022/03/14 02:14:41;;;;;;;18.00;12.32;;;8.60;99.90;;;;;;4914441;29;20060;-49
2022/03/14 02:17:15;;;;;;;19.25;13.18;;;8.10;99.90;;;;;;4913349;29;20043;-51
2022/03/14 02:19:42;;;;;;;22.17;13.88;;;8.00;99.90;;;;;;4912650;29;20946;-52
2022/03/14 02:22:13;;;;;;;18.33;12.50;;;7.90;99.90;;;;;;4911799;29;20535;-50
2022/03/14 02:24:45;;;;;;;15.35;11.88;;;8.30;99.90;;;;;;4910494;29;21180;-51
2022/03/14 02:27:14;;;;;;;;;;;8.00;99.90;;;;;;4913190;29;20742;-50
2022/03/14 02:29:41;;;;;;;18.27;13.27;;;9.90;99.90;;;;;;4912331;29;20575;-49
2022/03/14 02:32:09;;;;;;;18.30;13.68;;;9.20;99.90;;;;;;4911687;29;20061;-53
2022/03/14 02:34:35;;;;;;;15.35;11.70;;;8.00;99.90;;;;;;4912920;29;20078;-53
2022/03/14 02:37:02;;;;;;;17.38;11.57;;;8.10;99.90;;;;;;4912172;29;20556;-50
2022/03/14 02:39:28;;;;;;;14.65;11.65;;;8.10;99.90;;;;;;4912298;29;20425;-53
2022/03/14 02:41:54;;;;;;;17.00;11.90;;;8.20;99.90;;;;;;4911615;29;20043;-51
2022/03/14 02:44:20;;;;;;;16.98;11.25;;;8.30;99.90;;;;;;4911416;29;20810;-49
2022/03/14 02:46:45;;;;;;;18.30;12.15;;;8.20;99.90;;;;;;4912723;29;20044;-54
2022/03/14 02:49:13;;;;;;;19.00;12.13;;;8.80;99.90;;;;;;4910263;29;20036;-49
2022/03/14 02:51:39;;;;;;;15.63;11.98;;;8.10;99.90;;;;;;4968299;28;20092;-53
2022/03/14 02:54:10;;;;;;;15.95;11.77;;;9.00;99.90;;;;;;4991838;28;20092;-50
2022/03/14 02:56:40;;;;;;;16.58;11.38;;;8.30;99.90;;;;;;4992014;28;20042;-52
2022/03/14 02:59:07;;;;;;;15.18;11.18;;;8.30;99.90;;;;;;4993088;28;20045;-52
2022/03/14 03:01:33;;;;;;;14.55;10.77;;;8.40;99.90;;;;;;4992961;28;20050;-50
2022/03/14 03:04:01;;;;;;;14.10;10.73;;;8.30;99.90;;;;;;4974550;28;20069;-51
2022/03/14 03:06:27;;;;;;;14.23;10.20;;;8.50;99.90;;;;;;4991965;28;20538;-52
2022/03/14 03:08:54;;;;;;;15.88;11.40;;;9.80;99.90;;;;;;4991194;28;20617;-54
2022/03/14 03:11:21;;;;;;;13.55;10.40;;;9.60;99.90;;;;;;4994586;28;20041;-53
2022/03/14 03:13:52;;;;;;;16.40;10.57;;;8.20;99.90;;;;;;4992654;28;20271;-51
2022/03/14 03:16:17;;;;;;;15.23;10.48;;;6.80;99.90;;;;;;4994739;28;20173;-49
2022/03/14 03:18:44;;;;;;;13.48;10.32;;;8.30;99.90;;;;;;4992371;28;20136;-48
2022/03/14 03:21:11;;;;;;;12.98;9.63;;;10.40;99.90;;;;;;4994366;28;20038;-53
2022/03/14 03:23:36;;;;;;;12.65;9.38;;;8.40;99.90;;;;;;4994131;28;20439;-52
2022/03/14 03:26:04;;;;;;;15.90;9.25;;;8.20;99.90;;;;;;4994018;28;20052;-48
2022/03/14 03:28:35;;;;;;;12.05;9.40;;;8.20;99.90;;;;;;4993373;28;20046;-50
2022/03/14 03:31:13;;;;;;;12.18;8.68;;;8.30;99.90;;;;;;4993074;28;20060;-47
2022/03/14 03:33:39;;;;;;;11.85;9.00;;;8.40;99.90;;;;;;4993104;28;20038;-53
2022/03/14 03:36:07;;;;;;;12.32;8.80;;;8.60;99.90;;;;;;4992323;28;20082;-48
2022/03/14 03:38:33;;;;;;;11.13;8.35;;;8.30;99.90;;;;;;4993165;28;20382;-48
2022/03/14 03:40:59;;;;;;;10.25;7.68;;;8.40;99.90;;;;;;4993222;28;20034;-49
2022/03/14 03:43:25;;;;;;;14.65;8.88;;;8.20;99.90;;;;;;4996622;28;20709;-49
2022/03/14 03:45:51;;;;;;;15.27;8.75;;;8.50;99.90;;;;;;4995952;28;20733;-50
2022/03/14 03:48:20;;;;;;;12.18;8.32;;;8.50;99.90;;;;;;4996254;28;20137;-50
2022/03/14 03:50:46;;;;;;;9.73;7.78;;;9.60;99.90;;;;;;4978516;28;20426;-50
2022/03/14 03:53:12;;;;;;;10.70;7.28;;;8.40;99.90;;;;;;4995762;28;20441;-50
2022/03/14 03:55:38;;;;;;;12.35;8.10;;;8.90;99.90;;;;;;4995305;28;20050;-50
2022/03/14 03:58:05;;;;;;;10.32;7.18;;;8.70;99.90;;;;;;4995361;28;20054;-51
2022/03/14 04:00:34;;;;;;;13.05;7.75;;;8.30;99.90;;;;;;4995665;28;20553;-49
2022/03/14 04:03:00;;;;;;;10.02;7.95;;;8.30;99.90;;;;;;4995285;28;20081;-50
2022/03/14 04:05:27;;;;;;;10.75;7.03;;;8.40;99.90;;;;;;4995014;28;20144;-51
2022/03/14 04:07:57;;;;;;;9.10;6.78;;;8.40;99.90;;;;;;4994687;28;20275;-52
2022/03/14 04:10:24;;;;;;;8.35;6.55;;;8.90;99.90;;;;;;4994257;28;20037;-50
2022/03/14 04:12:51;;;;;;;9.85;7.07;;;8.30;99.90;;;;;;4995884;28;20483;-50
2022/03/14 04:15:22;;;;;;;10.13;7.60;;;8.80;99.90;;;;;;4995605;28;20073;-54
2022/03/14 04:17:49;;;;;;;10.90;6.72;;;8.40;99.90;;;;;;4994297;28;20594;-52
2022/03/14 04:20:15;;;;;;;9.68;6.50;;;8.30;99.90;;;;;;4996314;28;20053;-51
2022/03/14 04:22:41;;;;;;;9.15;6.05;;;8.40;99.90;;;;;;4995402;28;20068;-49
2022/03/14 04:25:11;;;;;;;10.32;6.00;;;8.50;99.90;;;;;;4977152;28;20030;-50
2022/03/14 04:27:37;;;;;;;9.60;6.18;;;8.50;99.90;;;;;;4994547;28;20103;-53
2022/03/14 04:30:03;;;;;;;8.82;5.53;;;8.40;99.90;;;;;;4995342;28;20046;-52
2022/03/14 04:32:31;;;;;;;8.15;5.50;;;8.30;99.90;;;;;;4994825;28;20761;-57
2022/03/14 04:34:56;;;;;;;7.03;4.97;;;8.40;99.90;;;;;;4995790;28;20125;-48
2022/03/14 04:37:22;;;;;;;8.02;5.53;;;6.40;99.90;;;;;;4995718;28;20046;-48
2022/03/14 04:39:48;;;;;;;7.32;5.13;;;8.20;99.90;;;;;;4995187;28;20042;-48
2022/03/14 04:42:17;;;;;;;7.78;5.22;;;9.20;99.90;;;;;;4996224;28;22060;-50
2022/03/14 04:44:44;;;;;;;7.75;5.30;;;8.10;99.90;;;;;;4996283;28;20045;-48
2022/03/14 04:47:10;;;;;;;7.60;5.20;;;8.20;99.90;;;;;;4996321;28;20092;-50
2022/03/14 04:49:36;;;;;;;10.60;4.53;;;8.30;99.90;;;;;;4995406;28;20042;-50
2022/03/14 04:52:02;;;;;;;7.38;5.35;;;8.10;99.90;;;;;;4994970;28;20040;-49
2022/03/14 04:54:29;;;;;;;7.07;4.95;;;8.20;99.90;;;;;;4977158;28;20045;-50
2022/03/14 04:56:57;;;;;;;7.78;4.90;;;8.20;99.90;;;;;;4996244;28;20613;-52
2022/03/14 04:59:22;;;;;;;9.55;5.57;;;7.90;99.90;;;;;;4996216;28;20046;-51
2022/03/14 05:01:48;;;;;;;10.05;5.28;;;8.10;99.90;;;;;;4993553;28;20057;-48
2022/03/14 05:04:14;;;;;;;11.07;5.30;;;8.10;99.90;;;;;;4994290;28;20039;-48
2022/03/14 05:06:40;;;;;;;8.00;5.00;;;9.40;99.90;;;;;;4994343;28;20041;-47
2022/03/14 05:09:06;;;;;;;7.93;5.80;;;8.10;99.90;;;;;;4994995;28;20406;-49
2022/03/14 05:11:33;;;;;;;8.77;5.07;;;8.00;99.90;;;;;;4975622;28;20050;-48
2022/03/14 05:13:59;;;;;;;9.05;4.72;;;8.30;99.90;;;;;;4993108;28;20041;-50
2022/03/14 05:16:25;;;;;;;7.28;4.82;;;10.40;99.90;;;;;;4994493;28;20659;-51
2022/03/14 05:18:51;;;;;;;6.85;4.47;;;8.10;99.90;;;;;;4993821;28;20124;-51
2022/03/14 05:21:16;;;;;;;6.90;4.15;;;8.10;99.90;;;;;;4995256;28;20498;-49
2022/03/14 05:23:42;;;;;;;7.82;4.22;;;8.10;99.90;;;;;;4994410;28;20076;-49
2022/03/14 05:26:10;;;;;;;6.97;4.35;;;8.30;99.90;;;;;;4994096;28;20572;-48
2022/03/14 05:28:35;;;;;;;9.68;4.90;;;8.10;99.90;;;;;;4992202;28;20049;-49
2022/03/14 05:31:01;;;;;;;6.70;4.10;;;8.30;99.90;;;;;;4993557;28;20037;-49
2022/03/14 05:33:27;;;;;;;5.97;4.10;;;8.20;99.90;;;;;;4993809;28;20042;-48
2022/03/14 05:35:54;;;;;;;7.13;3.78;;;9.50;99.90;;;;;;4993091;28;20045;-49
2022/03/14 05:38:21;;;;;;;6.25;4.25;;;8.50;99.90;;;;;;4993186;28;20569;-49
2022/03/14 05:40:47;;;;;;;6.07;3.90;;;8.20;99.90;;;;;;4992639;28;20098;-49
2022/03/14 05:43:13;;;;;;;8.07;4.07;;;8.90;99.90;;;;;;4992713;28;20041;-50
2022/03/14 05:45:39;;;;;;;6.68;4.03;;;8.30;99.90;;;;;;4993170;28;20404;-49
2022/03/14 05:48:05;;;;;;;5.95;4.05;;;8.30;99.90;;;;;;4994192;28;20145;-50
2022/03/14 05:50:32;;;;;;;6.30;3.72;;;9.20;99.90;;;;;;4992811;28;20052;-47
2022/03/14 05:52:58;;;;;;;6.20;3.85;;;7.00;99.90;;;;;;4991585;28;20055;-51
2022/03/14 05:55:24;;;;;;;5.95;3.67;;;8.30;99.90;;;;;;4993052;28;20112;-49
2022/03/14 05:57:52;;;;;;;6.65;4.22;;;8.30;99.90;;;;;;4994909;28;20041;-46
2022/03/14 06:00:24;;;;;;;7.25;4.00;;;8.60;99.90;;;;;;4994619;28;20049;-49
2022/03/14 06:02:52;;;;;;;5.88;3.42;;;8.20;99.90;;;;;;4994857;28;20921;-48
2022/03/14 06:05:20;;;;;;;5.93;3.42;;;8.50;99.90;;;;;;4992713;28;20050;-49
2022/03/14 06:07:46;;;;;;;4.88;3.20;;;8.30;99.90;;;;;;4992885;28;20048;-51
2022/03/14 06:10:15;;;;;;;6.05;3.70;;;8.10;99.90;;;;;;4994219;28;20038;-47
2022/03/14 06:12:41;;;;;;;6.82;3.38;;;8.10;99.90;;;;;;4994373;28;20112;-49
2022/03/14 06:15:09;;;;;;;9.40;3.40;;;8.20;99.90;;;;;;4993306;28;20041;-49
2022/03/14 06:17:35;;;;;;;5.82;3.58;;;8.20;99.90;;;;;;4994241;28;20061;-48
2022/03/14 06:20:01;;;;;;;5.78;3.47;;;8.20;99.90;;;;;;4991587;28;20042;-52
2022/03/14 06:22:29;;;;;;;5.45;3.75;;;8.20;99.90;;;;;;4992461;28;20069;-52
2022/03/14 06:24:54;;;;;;;6.18;3.85;;;8.30;99.90;;;;;;4993444;28;20045;-52
2022/03/14 06:27:22;;;;;;;5.60;3.45;;;8.50;99.90;;;;;;4991097;28;20046;-51
2022/03/14 06:29:48;;;;;;;5.15;3.47;;;9.10;99.90;;;;;;4991193;28;20137;-50
2022/03/14 06:32:14;;;;;;;6.22;3.60;;;8.40;99.90;;;;;;4990481;28;20181;-51
2022/03/14 06:34:41;;;;;;;5.32;3.67;;;8.40;99.90;;;;;;4990668;28;20061;-52
2022/03/14 06:37:07;;;;;;;5.00;3.20;;;8.50;99.90;;;;;;4975861;28;20046;-50
2022/03/14 06:39:37;;;;;;;5.47;3.72;;;8.40;99.90;;;;;;4974724;28;20049;-47
2022/03/14 06:42:09;;;;;;;6.10;2.78;;;8.20;99.90;;;;;;4992826;28;20040;-52
2022/03/14 06:44:38;;;;;;;7.25;3.45;;;8.50;99.90;;;;;;4992743;28;20046;-49
2022/03/14 06:47:06;;;;;;;5.40;3.55;;;8.50;99.90;;;;;;4992792;28;20050;-49
2022/03/14 06:49:32;;;;;;;5.80;3.45;;;8.50;99.90;;;;;;4991883;28;20060;-49
2022/03/14 06:51:58;;;;;;;6.00;4.00;;;9.50;99.90;;;;;;4991960;28;20050;-49
2022/03/14 06:54:24;;;;;;;6.95;3.80;;;8.50;99.90;;;;;;4991740;28;20041;-51
2022/03/14 06:56:50;;;;;;;5.72;3.60;;;9.10;99.90;;;;;;4991606;28;20045;-52
2022/03/14 06:59:15;;;;;;;6.75;4.20;;;8.50;99.90;;;;;;4992060;28;20045;-52
2022/03/14 07:01:43;;;;;;;7.90;3.60;;;9.60;99.90;;;;;;4991556;28;20083;-52
2022/03/14 07:04:09;;;;;;;5.50;3.80;;;8.50;99.90;;;;;;4992398;28;21863;-49
2022/03/14 07:06:35;;;;;;;7.07;4.00;;;8.50;99.90;;;;;;4992544;28;20045;-48
2022/03/14 07:09:04;;;;;;;7.18;3.92;;;8.60;99.90;;;;;;4993962;28;20037;-50
2022/03/14 07:11:30;;;;;;;6.57;3.90;;;9.60;99.90;;;;;;4993013;28;20068;-50
2022/03/14 07:13:56;;;;;;;6.63;3.83;;;9.10;99.90;;;;;;4992469;28;20049;-49
2022/03/14 07:16:24;;;;;;;5.43;3.83;;;8.60;99.90;;;;;;4993770;28;20399;-47
2022/03/14 07:18:49;;;;;;;5.55;3.85;;;8.30;99.90;;;;;;4993863;28;20046;-51
2022/03/14 07:21:17;;;;;;;5.55;4.28;;;8.50;99.90;;;;;;4992980;28;20475;-51
2022/03/14 07:23:42;;;;;;;6.15;4.18;;;9.00;99.90;;;;;;4992799;28;20057;-48
2022/03/14 07:26:08;;;;;;;6.15;3.95;;;8.90;99.90;;;;;;4976161;28;20057;-50
2022/03/14 07:28:34;;;;;;;7.28;3.60;;;9.40;99.90;;;;;;4993584;28;20038;-51
2022/03/14 07:31:00;;;;;;;8.70;4.00;;;8.60;99.90;;;;;;4975602;28;20499;-51
2022/03/14 07:33:28;;;;;;;7.07;4.00;;;8.40;99.90;;;;;;4989861;28;21064;-48
2022/03/14 07:35:54;;;;;;;5.40;4.00;;;8.50;99.90;;;;;;4990077;28;20060;-49
2022/03/14 07:38:20;;;;;;;6.13;3.90;;;8.70;99.90;;;;;;4989781;28;20810;-47
2022/03/14 07:40:48;;;;;;;7.97;4.25;;;8.70;99.90;;;;;;4991130;28;20049;-50
2022/03/14 07:43:14;;;;;;;8.77;4.13;;;8.90;99.90;;;;;;4991650;28;20033;-49
2022/03/14 07:45:39;;;;;;;8.63;4.45;;;8.90;99.90;;;;;;4990989;28;20045;-49
2022/03/14 07:48:05;;;;;;;7.00;4.60;;;8.90;99.90;;;;;;4991431;28;20037;-48
2022/03/14 07:50:33;;;;;;;5.55;3.95;;;8.70;99.90;;;;;;4992391;28;20042;-51
2022/03/14 07:52:59;;;;;;;7.45;4.45;;;8.80;99.90;;;;;;4991213;28;20310;-47
2022/03/14 07:55:25;;;;;;;6.30;4.70;;;11.20;99.90;;;;;;4991737;28;20585;-51
2022/03/14 07:57:51;;;;;;;7.25;4.57;;;9.00;99.90;;;;;;4990542;28;20057;-50
2022/03/14 08:00:21;;;;;;;9.05;4.35;;;8.80;99.90;;;;;;4992213;28;20038;-50
2022/03/14 08:02:48;;;;;;;6.63;4.38;;;9.00;99.90;;;;;;4991979;28;20116;-49
2022/03/14 08:05:17;;;;;;;7.10;4.45;;;9.00;99.90;;;;;;4992022;28;20534;-50
2022/03/14 08:07:45;;;;;;;6.43;4.40;;;9.60;99.90;;;;;;4990481;28;20038;-48
2022/03/14 08:10:12;;;;;;;7.78;4.47;;;9.30;99.90;;;;;;4991661;28;20053;-47
2022/03/14 08:12:49;;;;;;;8.00;4.28;;;9.10;99.90;;;;;;4990554;28;20057;-50
2022/03/14 08:15:36;;;;;;;5.97;4.50;;;9.10;99.90;;;;;;4991972;28;20048;-48
2022/03/14 08:18:07;;;;;;;7.45;4.65;;;10.10;99.90;;;;;;4973568;28;20030;-49
2022/03/14 08:20:34;;;;;;;8.50;4.75;;;9.20;99.90;;;;;;4991041;28;20073;-53
2022/03/14 08:23:02;;;;;;;7.90;5.07;;;9.90;99.90;;;;;;4989816;28;20045;-51
2022/03/14 08:25:30;;;;;;;6.55;4.90;;;9.20;99.90;;;;;;4992881;28;20060;-47
2022/03/14 08:27:56;;;;;;;6.38;4.50;;;9.20;99.90;;;;;;4993634;28;20038;-49
2022/03/14 08:30:23;;;;;;;6.60;4.47;;;9.20;99.90;;;;;;4995923;28;20041;-48
2022/03/14 08:32:51;;;;;;;6.70;4.60;;;9.70;99.90;;;;;;4995244;28;20042;-52
2022/03/14 08:35:18;;;;;;;7.97;5.20;;;9.30;99.90;;;;;;4996293;28;20116;-48
2022/03/14 08:37:45;;;;;;;7.25;5.30;;;9.20;99.90;;;;;;4978759;28;22088;-46
2022/03/14 08:40:13;;;;;;;7.15;4.90;;;9.30;99.90;;;;;;4996642;28;20623;-47
2022/03/14 08:42:40;;;;;;;8.18;5.50;;;9.30;99.90;;;;;;4995893;28;20046;-49
2022/03/14 08:45:09;;;;;;;8.25;5.15;;;9.70;99.90;;;;;;4976689;28;20041;-50
2022/03/14 08:47:38;;;;;;;7.88;5.60;;;9.30;99.90;;;;;;4976988;28;20053;-49
2022/03/14 08:50:06;;;;;;;7.88;5.55;;;9.80;99.90;;;;;;4994609;28;20042;-46
2022/03/14 08:52:31;;;;;;;7.93;5.80;;;9.30;99.90;;;;;;4993784;28;20046;-48
2022/03/14 08:54:58;;;;;;;7.63;6.05;;;10.10;99.90;;;;;;4994256;28;20066;-48
2022/03/14 08:57:23;;;;;;;8.80;7.20;;;9.30;99.90;;;;;;4993396;28;20046;-47
2022/03/14 08:59:49;;;;;;;10.27;7.57;;;9.30;99.90;;;;;;4993513;28;20045;-48
2022/03/14 09:02:15;;;;;;;10.73;8.93;;;10.60;99.90;;;;;;4993851;28;20034;-50
2022/03/14 09:04:41;;;;;;;12.98;10.93;;;9.20;99.90;;;;;;4994247;28;20046;-52
2022/03/14 09:07:09;;;;;;;13.52;10.52;;;8.70;99.90;;;;;;4994649;28;20157;-53
2022/03/14 09:09:34;;;;;;;16.33;11.75;;;10.80;99.90;;;;;;4994728;28;20074;-50
2022/03/14 09:12:01;;;;;;;15.65;13.25;;;9.30;99.90;;;;;;4994429;28;20128;-51
2022/03/14 09:14:32;;;;;;;18.88;15.82;;;9.40;99.90;;;;;;4994361;28;20042;-50
2022/03/14 09:16:58;;;;;;;18.90;14.77;;;11.50;99.90;;;;;;4994870;28;20034;-51
2022/03/14 09:19:27;;;;;;;19.35;16.17;;;11.30;99.90;;;;;;4993745;28;20037;-51
2022/03/14 09:21:58;;;;;;;17.35;14.88;;;9.40;99.90;;;;;;4995209;28;20970;-51
2022/03/14 09:24:26;;;;;;;20.60;16.48;;;9.30;99.90;;;;;;4994450;28;20127;-52
2022/03/14 09:26:55;;;;;;;20.10;16.70;;;10.40;99.90;;;;;;4995183;28;20076;-51
2022/03/14 09:29:22;;;;;;;22.75;19.40;;;9.30;99.90;;;;;;4994943;28;20038;-49
2022/03/14 09:31:49;;;;;;;22.33;18.15;;;10.50;99.90;;;;;;4992369;28;20128;-48
2022/03/14 09:34:14;;;;;;;23.83;19.90;;;10.20;99.90;;;;;;4994331;28;20104;-52
2022/03/14 09:36:40;;;;;;;26.73;20.25;;;9.10;99.90;;;;;;4975185;28;20518;-50
2022/03/14 09:39:11;;;;;;;24.42;21.20;;;9.10;99.90;;;;;;4993486;28;20045;-51
2022/03/14 09:41:40;;;;;;;24.08;20.67;;;9.30;99.90;;;;;;4992883;28;20124;-56
2022/03/14 09:44:11;;;;;;;25.88;21.10;;;9.00;99.90;;;;;;4992597;28;20584;-53
2022/03/14 09:46:39;;;;;;;25.48;19.88;;;10.00;99.90;;;;;;4994067;28;20056;-52
2022/03/14 09:49:09;;;;;;;26.75;19.85;;;9.40;99.90;;;;;;4995128;28;20034;-53
2022/03/14 09:51:39;;;;;;;23.10;18.33;;;8.90;99.90;;;;;;4993689;28;20394;-51
2022/03/14 09:54:11;;;;;;;24.67;17.13;;;10.20;99.90;;;;;;4992846;28;20085;-53
2022/03/14 09:56:41;;;;;;;22.67;16.02;;;9.00;99.90;;;;;;4992865;28;20586;-50
2022/03/14 09:59:12;;;;;;;19.55;14.10;;;8.80;99.90;;;;;;4994447;28;20100;-49
2022/03/14 10:01:39;;;;;;;20.73;14.90;;;8.90;99.90;;;;;;4993061;28;20495;-49
2022/03/14 10:04:05;;;;;;;20.08;14.45;;;9.00;99.90;;;;;;4993210;28;20196;-52
2022/03/14 10:06:31;;;;;;;19.27;12.48;;;8.90;99.90;;;;;;4995021;28;20046;-52
2022/03/14 10:08:56;;;;;;;18.80;11.98;;;10.10;99.90;;;;;;4993257;28;20038;-54
2022/03/14 10:11:22;;;;;;;19.20;10.82;;;9.10;99.90;;;;;;4992238;28;20056;-52
2022/03/14 10:13:48;;;;;;;19.58;10.85;;;9.50;99.90;;;;;;4992319;28;20042;-52
2022/03/14 10:16:13;;;;;;;17.20;10.70;;;8.90;99.90;;;;;;4994051;28;20111;-54
2022/03/14 10:18:57;;;;;;;20.45;11.90;;;8.90;99.90;;;;;;4991697;28;20053;-53
2022/03/14 10:21:37;;;;;;;18.73;10.15;;;9.00;99.90;;;;;;4991517;28;20050;-53
2022/03/14 10:24:10;;;;;;;20.10;11.25;;;9.00;99.90;;;;;;4992141;28;20392;-55
2022/03/14 10:26:41;;;;;;;19.83;11.05;;;9.10;99.90;;;;;;4992624;28;20397;-54
2022/03/14 10:29:10;;;;;;;18.55;9.77;;;9.20;99.90;;;;;;4992003;28;20053;-54
2022/03/14 10:31:38;;;;;;;16.80;8.85;;;9.20;99.90;;;;;;4991753;28;20086;-53
2022/03/14 10:34:11;;;;;;;20.33;9.35;;;9.20;99.90;;;;;;4991504;28;20117;-53
2022/03/14 10:36:39;;;;;;;17.88;9.10;;;11.40;99.90;;;;;;4991577;28;20188;-54
2022/03/14 10:39:22;;;;;;;14.63;8.43;;;9.30;99.90;;;;;;4992851;28;20053;-54
2022/03/14 10:42:13;;;;;;;13.95;8.77;;;9.40;99.90;;;;;;4992348;28;20049;-51
2022/03/14 10:44:41;;;;;;;19.10;9.07;;;9.20;99.90;;;;;;4992433;28;20053;-53
2022/03/14 10:47:10;;;;;;;22.10;9.18;;;9.50;99.90;;;;;;4991746;28;20129;-54
2022/03/14 10:49:39;;;;;;;19.52;8.20;;;9.30;99.90;;;;;;4992140;28;20114;-53
2022/03/14 10:52:13;;;;;;;21.17;9.82;;;9.50;99.90;;;;;;4991055;28;20341;-53
2022/03/14 10:54:40;;;;;;;16.52;8.40;;;10.70;99.90;;;;;;4991743;28;20074;-53
2022/03/14 10:57:12;;;;;;;18.55;8.05;;;9.90;99.90;;;;;;4991965;28;20096;-54
2022/03/14 10:59:46;;;;;;;17.08;8.45;;;9.60;99.90;;;;;;4992079;28;20129;-53
2022/03/14 11:02:15;;;;;;;17.48;7.75;;;9.50;99.90;;;;;;4991169;28;20046;-51
2022/03/14 11:04:47;;;;;;;14.35;7.32;;;10.10;99.90;;;;;;4992056;28;20120;-49
2022/03/14 11:07:15;;;;;;;20.40;7.32;;;9.60;99.90;;;;;;4992166;28;20957;-53
2022/03/14 11:09:49;;;;;;;15.93;6.03;;;9.70;99.90;;;;;;4992024;28;20125;-48
2022/03/14 11:12:18;;;;;;;15.45;6.47;;;10.80;99.90;;;;;;4991972;28;20065;-53
2022/03/14 11:15:09;;;;;;;13.23;5.43;;;10.80;99.90;;;;;;4991058;28;20222;-54
2022/03/14 11:17:36;;;;;;;14.25;5.93;;;9.80;99.90;;;;;;4894495;29;20066;-47
2022/03/14 11:20:03;;;;;;;16.45;5.68;;;9.90;99.90;;;;;;4893203;29;20091;-52
2022/03/14 11:22:30;;;;;;;15.27;6.05;;;10.00;99.90;;;;;;4893920;29;20059;-47
2022/03/14 11:25:00;;;;;;;13.32;5.85;;;10.60;99.90;;;;;;4892837;29;20135;-52
2022/03/14 11:27:46;;;;;;;17.48;6.13;;;9.90;99.90;;;;;;4894200;29;20126;-49
2022/03/14 11:30:13;;;;;;;14.63;6.72;;;9.90;99.90;;;;;;4893186;29;20052;-51
2022/03/14 11:32:42;;;;;;;20.00;6.80;;;9.70;99.90;;;;;;4892607;29;20493;-48
2022/03/14 11:35:08;;;;;;;20.98;8.00;;;10.70;99.90;;;;;;4875411;29;20108;-50
2022/03/14 11:37:34;;;;;;;18.33;8.25;;;10.00;99.90;;;;;;4893177;29;20383;-51
2022/03/14 11:40:02;;;;;;;15.73;8.60;;;9.90;99.90;;;;;;4892946;29;20170;-50
2022/03/14 11:42:28;;;;;;;22.48;8.68;;;9.80;99.90;;;;;;4892048;29;20052;-49
2022/03/14 11:44:54;;;;;;;20.70;8.02;;;9.80;99.90;;;;;;4892470;29;20040;-50
2022/03/14 11:47:23;;;;;;;19.30;7.72;;;9.60;99.90;;;;;;4892611;29;20111;-49
2022/03/14 11:49:49;;;;;;;19.00;9.68;;;10.00;99.90;;;;;;4893430;29;20891;-52
2022/03/14 11:52:21;;;;;;;17.63;8.63;;;10.10;99.90;;;;;;4892251;29;20125;-53
2022/03/14 11:54:50;;;;;;;21.75;9.10;;;10.70;99.90;;;;;;4950334;28;20076;-50
2022/03/14 11:57:36;;;;;;;19.42;9.23;;;9.90;99.90;;;;;;4989983;28;20041;-51
2022/03/14 12:00:21;;;;;;;19.63;9.40;;;9.80;99.90;;;;;;4988816;28;20598;-54
2022/03/14 12:02:48;;;;;;;23.02;10.02;;;10.00;99.90;;;;;;4991873;28;20065;-49
2022/03/14 12:05:20;;;;;;;26.25;11.18;;;10.10;99.90;;;;;;4994086;28;20063;-51
2022/03/14 12:07:45;;;;;;;16.20;10.00;;;10.30;99.90;;;;;;4995078;28;20137;-51
2022/03/14 12:10:29;;;;;;;20.60;9.60;;;10.30;99.90;;;;;;4994651;28;20128;-50
2022/03/14 12:12:56;;;;;;;17.52;10.13;;;11.60;99.90;;;;;;4993572;28;20060;-50
2022/03/14 12:15:37;;;;;;;23.23;10.50;;;10.30;99.90;;;;;;4995500;28;20042;-53
2022/03/14 12:18:25;;;;;;;24.42;11.55;;;11.60;99.90;;;;;;4993839;28;20056;-53
2022/03/14 12:21:04;;;;;;;17.02;10.13;;;11.80;99.90;;;;;;4992838;28;20045;-53
2022/03/14 12:23:34;;;;;;;23.15;11.13;;;10.40;99.90;;;;;;4993363;28;20553;-51
2022/03/14 12:26:02;;;;;;;19.73;11.30;;;10.20;99.90;;;;;;4994060;28;20060;-53
2022/03/14 12:28:33;;;;;;;26.15;11.20;;;10.50;99.90;;;;;;4994834;28;20042;-52
2022/03/14 12:31:13;;;;;;;26.65;12.15;;;10.60;99.90;;;;;;4994330;28;20050;-52
2022/03/14 12:33:42;;;;;;;21.10;9.93;;;10.60;99.90;;;;;;4978709;28;20097;-52
2022/03/14 12:36:22;;;;;;;26.73;11.00;;;10.50;99.90;;;;;;4996407;28;20037;-52
2022/03/14 12:39:07;;;;;;;22.58;10.00;;;10.50;99.90;;;;;;4994992;28;20038;-50
2022/03/14 12:41:43;;;;;;;20.20;9.68;;;10.60;99.90;;;;;;4994912;28;20092;-52
2022/03/14 12:44:22;;;;;;;23.10;10.30;;;11.30;99.90;;;;;;4995615;28;20132;-51
2022/03/14 12:46:51;;;;;;;21.13;10.52;;;10.80;99.90;;;;;;4977558;28;20056;-52
2022/03/14 12:49:39;;;;;;;22.48;9.57;;;10.80;99.90;;;;;;4995933;28;20137;-52
2022/03/14 12:52:17;;;;;;;20.75;9.00;;;10.90;99.90;;;;;;4994936;28;20087;-50